sensor_id;sensor_type;location;lat;lon;timestamp;P1;durP1;ratioP1;P2;durP2;ratioP2
82248;SDS011;71851;49.092;18.918;2023-09-19T00:02:18;11.63;;;10.45;;
82248;SDS011;71851;49.092;18.918;2023-09-19T00:05:19;10.82;;;9.70;;
82248;SDS011;71851;49.092;18.918;2023-09-19T00:08:23;12.00;;;9.88;;
82248;SDS011;71851;49.092;18.918;2023-09-19T00:11:24;13.45;;;10.93;;
82248;SDS011;71851;49.092;18.918;2023-09-19T00:14:26;11.55;;;9.98;;
82248;SDS011;71851;49.092;18.918;2023-09-19T00:17:27;11.73;;;10.02;;
82248;SDS011;71851;49.092;18.918;2023-09-19T00:20:30;11.70;;;9.52;;
82248;SDS011;71851;49.092;18.918;2023-09-19T00:23:31;13.63;;;10.60;;
82248;SDS011;71851;49.092;18.918;2023-09-19T00:26:34;13.27;;;11.77;;
82248;SDS011;71851;49.092;18.918;2023-09-19T00:29:34;13.13;;;10.48;;
82248;SDS011;71851;49.092;18.918;2023-09-19T00:32:35;12.68;;;10.80;;
82248;SDS011;71851;49.092;18.918;2023-09-19T00:35:37;13.18;;;10.80;;
82248;SDS011;71851;49.092;18.918;2023-09-19T00:38:38;11.70;;;10.30;;
82248;SDS011;71851;49.092;18.918;2023-09-19T00:41:38;14.23;;;10.70;;
82248;SDS011;71851;49.092;18.918;2023-09-19T00:44:39;10.95;;;9.88;;
82248;SDS011;71851;49.092;18.918;2023-09-19T00:47:41;12.15;;;10.65;;
82248;SDS011;71851;49.092;18.918;2023-09-19T00:50:44;12.93;;;11.27;;
82248;SDS011;71851;49.092;18.918;2023-09-19T00:53:46;12.50;;;11.18;;
82248;SDS011;71851;49.092;18.918;2023-09-19T00:56:47;11.60;;;9.93;;
82248;SDS011;71851;49.092;18.918;2023-09-19T00:59:49;12.18;;;10.90;;
82248;SDS011;71851;49.092;18.918;2023-09-19T01:02:55;11.00;;;9.52;;
82248;SDS011;71851;49.092;18.918;2023-09-19T01:05:56;11.65;;;10.48;;
82248;SDS011;71851;49.092;18.918;2023-09-19T01:08:56;10.63;;;9.52;;
82248;SDS011;71851;49.092;18.918;2023-09-19T01:11:58;13.38;;;10.60;;
82248;SDS011;71851;49.092;18.918;2023-09-19T01:15:05;11.80;;;10.43;;
82248;SDS011;71851;49.092;18.918;2023-09-19T01:21:44;11.40;;;10.23;;
82248;SDS011;71851;49.092;18.918;2023-09-19T01:25:03;11.55;;;10.10;;
82248;SDS011;71851;49.092;18.918;2023-09-19T01:29:08;12.23;;;10.93;;
82248;SDS011;71851;49.092;18.918;2023-09-19T01:31:54;11.05;;;9.85;;
82248;SDS011;71851;49.092;18.918;2023-09-19T01:34:57;14.95;;;10.32;;
82248;SDS011;71851;49.092;18.918;2023-09-19T01:38:04;11.93;;;9.93;;
82248;SDS011;71851;49.092;18.918;2023-09-19T01:41:08;10.95;;;9.82;;
82248;SDS011;71851;49.092;18.918;2023-09-19T01:44:15;11.85;;;10.55;;
82248;SDS011;71851;49.092;18.918;2023-09-19T01:50:46;11.65;;;10.23;;
82248;SDS011;71851;49.092;18.918;2023-09-19T01:57:20;12.73;;;10.75;;
82248;SDS011;71851;49.092;18.918;2023-09-19T02:00:28;12.85;;;11.55;;
82248;SDS011;71851;49.092;18.918;2023-09-19T02:03:30;13.45;;;11.80;;
82248;SDS011;71851;49.092;18.918;2023-09-19T02:06:32;11.85;;;10.57;;
82248;SDS011;71851;49.092;18.918;2023-09-19T02:09:34;11.95;;;10.73;;
82248;SDS011;71851;49.092;18.918;2023-09-19T02:12:35;10.77;;;9.68;;
82248;SDS011;71851;49.092;18.918;2023-09-19T02:15:37;13.25;;;10.18;;
82248;SDS011;71851;49.092;18.918;2023-09-19T02:18:38;11.70;;;10.50;;
82248;SDS011;71851;49.092;18.918;2023-09-19T02:41:20;13.20;;;11.00;;
82248;SDS011;71851;49.092;18.918;2023-09-19T02:44:21;13.40;;;10.60;;
82248;SDS011;71851;49.092;18.918;2023-09-19T02:47:21;10.95;;;9.90;;
82248;SDS011;71851;49.092;18.918;2023-09-19T02:50:22;11.60;;;10.30;;
82248;SDS011;71851;49.092;18.918;2023-09-19T02:53:23;13.32;;;10.48;;
82248;SDS011;71851;49.092;18.918;2023-09-19T02:56:24;12.60;;;11.30;;
82248;SDS011;71851;49.092;18.918;2023-09-19T02:59:25;15.48;;;13.25;;
82248;SDS011;71851;49.092;18.918;2023-09-19T03:59:45;18.17;;;14.48;;
82248;SDS011;71851;49.092;18.918;2023-09-19T04:05:48;17.00;;;13.82;;
82248;SDS011;71851;49.092;18.918;2023-09-19T04:08:49;19.00;;;15.73;;
82248;SDS011;71851;49.092;18.918;2023-09-19T04:11:49;18.65;;;14.27;;
82248;SDS011;71851;49.092;18.918;2023-09-19T04:14:50;16.88;;;14.73;;
82248;SDS011;71851;49.092;18.918;2023-09-19T04:17:51;17.88;;;14.95;;
82248;SDS011;71851;49.092;18.918;2023-09-19T04:20:51;18.27;;;13.63;;
82248;SDS011;71851;49.092;18.918;2023-09-19T04:23:56;18.15;;;13.80;;
82248;SDS011;71851;49.092;18.918;2023-09-19T04:26:56;17.10;;;13.70;;
82248;SDS011;71851;49.092;18.918;2023-09-19T04:29:57;15.93;;;14.32;;
82248;SDS011;71851;49.092;18.918;2023-09-19T04:32:59;17.85;;;15.60;;
82248;SDS011;71851;49.092;18.918;2023-09-19T04:36:02;18.25;;;14.52;;
82248;SDS011;71851;49.092;18.918;2023-09-19T04:39:05;19.15;;;15.23;;
82248;SDS011;71851;49.092;18.918;2023-09-19T04:42:07;18.75;;;15.60;;
82248;SDS011;71851;49.092;18.918;2023-09-19T04:45:07;21.42;;;16.15;;
82248;SDS011;71851;49.092;18.918;2023-09-19T04:48:10;20.55;;;16.50;;
82248;SDS011;71851;49.092;18.918;2023-09-19T04:51:10;19.45;;;15.23;;
82248;SDS011;71851;49.092;18.918;2023-09-19T04:54:11;17.38;;;13.98;;
82248;SDS011;71851;49.092;18.918;2023-09-19T04:57:11;19.38;;;15.07;;
82248;SDS011;71851;49.092;18.918;2023-09-19T05:00:16;17.50;;;15.27;;
82248;SDS011;71851;49.092;18.918;2023-09-19T05:03:19;19.00;;;15.05;;
82248;SDS011;71851;49.092;18.918;2023-09-19T05:06:20;16.90;;;15.05;;
82248;SDS011;71851;49.092;18.918;2023-09-19T05:09:24;19.73;;;14.68;;
82248;SDS011;71851;49.092;18.918;2023-09-19T05:12:26;19.02;;;14.77;;
82248;SDS011;71851;49.092;18.918;2023-09-19T05:15:27;21.70;;;14.77;;
82248;SDS011;71851;49.092;18.918;2023-09-19T05:18:27;18.55;;;14.23;;
82248;SDS011;71851;49.092;18.918;2023-09-19T05:21:28;18.13;;;14.60;;
82248;SDS011;71851;49.092;18.918;2023-09-19T05:24:31;19.38;;;15.73;;
82248;SDS011;71851;49.092;18.918;2023-09-19T05:27:31;19.25;;;15.43;;
82248;SDS011;71851;49.092;18.918;2023-09-19T05:30:32;20.75;;;16.20;;
82248;SDS011;71851;49.092;18.918;2023-09-19T05:33:32;18.67;;;16.25;;
82248;SDS011;71851;49.092;18.918;2023-09-19T05:36:33;21.13;;;15.77;;
82248;SDS011;71851;49.092;18.918;2023-09-19T05:39:33;21.27;;;15.70;;
82248;SDS011;71851;49.092;18.918;2023-09-19T05:42:34;22.33;;;16.90;;
82248;SDS011;71851;49.092;18.918;2023-09-19T05:45:34;22.20;;;16.98;;
82248;SDS011;71851;49.092;18.918;2023-09-19T05:48:36;24.00;;;16.23;;
82248;SDS011;71851;49.092;18.918;2023-09-19T05:51:37;23.63;;;17.10;;
82248;SDS011;71851;49.092;18.918;2023-09-19T05:54:37;19.90;;;16.52;;
82248;SDS011;71851;49.092;18.918;2023-09-19T05:57:38;21.15;;;16.52;;
82248;SDS011;71851;49.092;18.918;2023-09-19T06:00:42;22.00;;;18.25;;
82248;SDS011;71851;49.092;18.918;2023-09-19T06:03:44;25.52;;;17.33;;
82248;SDS011;71851;49.092;18.918;2023-09-19T06:06:45;20.27;;;17.38;;
82248;SDS011;71851;49.092;18.918;2023-09-19T06:09:48;20.27;;;17.50;;
82248;SDS011;71851;49.092;18.918;2023-09-19T06:12:49;22.50;;;17.77;;
82248;SDS011;71851;49.092;18.918;2023-09-19T06:15:49;21.88;;;18.65;;
82248;SDS011;71851;49.092;18.918;2023-09-19T06:18:50;23.65;;;18.27;;
82248;SDS011;71851;49.092;18.918;2023-09-19T06:21:52;20.63;;;18.17;;
82248;SDS011;71851;49.092;18.918;2023-09-19T06:24:54;23.13;;;18.17;;
82248;SDS011;71851;49.092;18.918;2023-09-19T06:27:59;20.90;;;17.08;;
82248;SDS011;71851;49.092;18.918;2023-09-19T06:31:05;19.25;;;17.20;;
82248;SDS011;71851;49.092;18.918;2023-09-19T06:34:10;17.73;;;15.13;;
82248;SDS011;71851;49.092;18.918;2023-09-19T06:37:10;15.30;;;12.43;;
82248;SDS011;71851;49.092;18.918;2023-09-19T06:43:16;6.50;;;3.65;;
82248;SDS011;71851;49.092;18.918;2023-09-19T06:46:17;4.68;;;2.50;;
82248;SDS011;71851;49.092;18.918;2023-09-19T06:49:17;2.25;;;1.70;;
82248;SDS011;71851;49.092;18.918;2023-09-19T06:52:18;2.78;;;1.33;;
82248;SDS011;71851;49.092;18.918;2023-09-19T06:55:19;1.80;;;1.15;;
82248;SDS011;71851;49.092;18.918;2023-09-19T06:58:25;2.40;;;1.20;;
82248;SDS011;71851;49.092;18.918;2023-09-19T07:01:25;3.15;;;1.10;;
82248;SDS011;71851;49.092;18.918;2023-09-19T07:04:44;3.00;;;0.80;;
82248;SDS011;71851;49.092;18.918;2023-09-19T07:07:45;1.60;;;0.90;;
82248;SDS011;71851;49.092;18.918;2023-09-19T07:10:46;4.95;;;0.90;;
82248;SDS011;71851;49.092;18.918;2023-09-19T07:14:12;2.55;;;0.52;;
82248;SDS011;71851;49.092;18.918;2023-09-19T07:17:13;2.03;;;0.70;;
82248;SDS011;71851;49.092;18.918;2023-09-19T07:20:16;1.52;;;0.70;;
82248;SDS011;71851;49.092;18.918;2023-09-19T07:23:17;4.18;;;1.02;;
82248;SDS011;71851;49.092;18.918;2023-09-19T07:26:22;3.10;;;1.08;;
82248;SDS011;71851;49.092;18.918;2023-09-19T07:29:22;1.92;;;0.75;;
82248;SDS011;71851;49.092;18.918;2023-09-19T07:32:23;6.07;;;3.53;;
82248;SDS011;71851;49.092;18.918;2023-09-19T07:35:24;2.63;;;1.38;;
82248;SDS011;71851;49.092;18.918;2023-09-19T07:38:25;3.15;;;1.00;;
82248;SDS011;71851;49.092;18.918;2023-09-19T07:41:27;2.65;;;1.30;;
82248;SDS011;71851;49.092;18.918;2023-09-19T07:44:27;5.40;;;3.72;;
82248;SDS011;71851;49.092;18.918;2023-09-19T07:47:27;3.50;;;1.10;;
82248;SDS011;71851;49.092;18.918;2023-09-19T07:50:30;4.50;;;1.40;;
82248;SDS011;71851;49.092;18.918;2023-09-19T07:53:30;2.53;;;1.13;;
82248;SDS011;71851;49.092;18.918;2023-09-19T07:56:31;4.00;;;0.90;;
82248;SDS011;71851;49.092;18.918;2023-09-19T07:59:32;1.67;;;1.20;;
82248;SDS011;71851;49.092;18.918;2023-09-19T08:02:36;2.17;;;1.38;;
82248;SDS011;71851;49.092;18.918;2023-09-19T08:05:40;4.15;;;2.05;;
82248;SDS011;71851;49.092;18.918;2023-09-19T08:08:43;1.55;;;1.17;;
82248;SDS011;71851;49.092;18.918;2023-09-19T08:11:43;3.78;;;1.58;;
82248;SDS011;71851;49.092;18.918;2023-09-19T08:17:48;3.58;;;1.60;;
82248;SDS011;71851;49.092;18.918;2023-09-19T08:20:49;1.83;;;1.27;;
82248;SDS011;71851;49.092;18.918;2023-09-19T08:23:51;4.28;;;3.33;;
82248;SDS011;71851;49.092;18.918;2023-09-19T08:26:51;1.45;;;1.00;;
82248;SDS011;71851;49.092;18.918;2023-09-19T08:29:52;3.20;;;1.80;;
82248;SDS011;71851;49.092;18.918;2023-09-19T08:32:59;4.05;;;1.70;;
82248;SDS011;71851;49.092;18.918;2023-09-19T08:36:00;2.42;;;1.55;;
82248;SDS011;71851;49.092;18.918;2023-09-19T08:39:00;2.78;;;1.00;;
82248;SDS011;71851;49.092;18.918;2023-09-19T08:42:01;3.55;;;1.63;;
82248;SDS011;71851;49.092;18.918;2023-09-19T08:45:02;3.50;;;1.40;;
82248;SDS011;71851;49.092;18.918;2023-09-19T08:51:45;2.15;;;1.05;;
82248;SDS011;71851;49.092;18.918;2023-09-19T08:54:46;2.17;;;1.63;;
82248;SDS011;71851;49.092;18.918;2023-09-19T08:57:49;2.22;;;1.25;;
82248;SDS011;71851;49.092;18.918;2023-09-19T09:00:51;3.10;;;1.48;;
82248;SDS011;71851;49.092;18.918;2023-09-19T09:03:54;3.80;;;1.60;;
82248;SDS011;71851;49.092;18.918;2023-09-19T09:06:56;1.55;;;1.13;;
82248;SDS011;71851;49.092;18.918;2023-09-19T09:09:57;1.45;;;1.17;;
82248;SDS011;71851;49.092;18.918;2023-09-19T09:12:57;2.65;;;1.60;;
82248;SDS011;71851;49.092;18.918;2023-09-19T09:15:58;2.75;;;1.38;;
82248;SDS011;71851;49.092;18.918;2023-09-19T09:18:59;2.05;;;1.05;;
82248;SDS011;71851;49.092;18.918;2023-09-19T09:22:08;4.18;;;1.63;;
82248;SDS011;71851;49.092;18.918;2023-09-19T09:25:09;1.95;;;0.95;;
82248;SDS011;71851;49.092;18.918;2023-09-19T09:28:10;4.30;;;1.45;;
82248;SDS011;71851;49.092;18.918;2023-09-19T09:31:23;3.60;;;1.70;;
82248;SDS011;71851;49.092;18.918;2023-09-19T09:34:32;4.90;;;1.50;;
82248;SDS011;71851;49.092;18.918;2023-09-19T09:37:33;3.60;;;1.13;;
82248;SDS011;71851;49.092;18.918;2023-09-19T09:40:48;2.83;;;0.90;;
82248;SDS011;71851;49.092;18.918;2023-09-19T09:43:54;18.25;;;1.90;;
82248;SDS011;71851;49.092;18.918;2023-09-19T09:46:54;3.05;;;1.60;;
82248;SDS011;71851;49.092;18.918;2023-09-19T09:49:59;27.17;;;2.78;;
82248;SDS011;71851;49.092;18.918;2023-09-19T09:53:19;28.30;;;2.67;;
82248;SDS011;71851;49.092;18.918;2023-09-19T09:56:28;120.10;;;7.97;;
82248;SDS011;71851;49.092;18.918;2023-09-19T09:59:48;20.88;;;1.83;;
82248;SDS011;71851;49.092;18.918;2023-09-19T10:02:58;43.42;;;4.25;;
82248;SDS011;71851;49.092;18.918;2023-09-19T10:06:00;191.40;;;10.40;;
82248;SDS011;71851;49.092;18.918;2023-09-19T10:09:11;4.72;;;2.20;;
82248;SDS011;71851;49.092;18.918;2023-09-19T10:12:11;4.97;;;1.35;;
82248;SDS011;71851;49.092;18.918;2023-09-19T10:15:16;3.03;;;1.13;;
82248;SDS011;71851;49.092;18.918;2023-09-19T10:18:21;2.03;;;1.40;;
82248;SDS011;71851;49.092;18.918;2023-09-19T10:21:22;1.52;;;1.23;;
82248;SDS011;71851;49.092;18.918;2023-09-19T10:24:24;2.58;;;1.60;;
82248;SDS011;71851;49.092;18.918;2023-09-19T10:27:27;129.70;;;8.80;;
82248;SDS011;71851;49.092;18.918;2023-09-19T10:30:31;9.77;;;1.55;;
82248;SDS011;71851;49.092;18.918;2023-09-19T10:33:35;488.63;;;31.00;;
82248;SDS011;71851;49.092;18.918;2023-09-19T10:36:37;332.70;;;55.92;;
82248;SDS011;71851;49.092;18.918;2023-09-19T10:39:44;14.30;;;3.88;;
82248;SDS011;71851;49.092;18.918;2023-09-19T10:42:46;23.73;;;2.65;;
82248;SDS011;71851;49.092;18.918;2023-09-19T10:45:51;57.97;;;15.63;;
82248;SDS011;71851;49.092;18.918;2023-09-19T10:48:57;26.00;;;3.63;;
82248;SDS011;71851;49.092;18.918;2023-09-19T10:52:00;3.13;;;1.60;;
82248;SDS011;71851;49.092;18.918;2023-09-19T10:55:02;6.68;;;1.40;;
82248;SDS011;71851;49.092;18.918;2023-09-19T10:58:03;2.08;;;1.02;;
82248;SDS011;71851;49.092;18.918;2023-09-19T11:01:14;2.33;;;1.15;;
82248;SDS011;71851;49.092;18.918;2023-09-19T11:04:29;1.48;;;1.10;;
82248;SDS011;71851;49.092;18.918;2023-09-19T11:07:31;2.30;;;0.90;;
82248;SDS011;71851;49.092;18.918;2023-09-19T11:10:48;3.53;;;0.80;;
82248;SDS011;71851;49.092;18.918;2023-09-19T11:14:13;2.03;;;1.15;;
82248;SDS011;71851;49.092;18.918;2023-09-19T11:20:22;1.23;;;0.93;;
82248;SDS011;71851;49.092;18.918;2023-09-19T11:23:35;1.95;;;1.27;;
82248;SDS011;71851;49.092;18.918;2023-09-19T11:26:40;16.05;;;1.98;;
82248;SDS011;71851;49.092;18.918;2023-09-19T11:29:48;116.30;;;8.98;;
82248;SDS011;71851;49.092;18.918;2023-09-19T11:33:28;281.48;;;18.80;;
82248;SDS011;71851;49.092;18.918;2023-09-19T11:36:38;12.60;;;2.05;;
82248;SDS011;71851;49.092;18.918;2023-09-19T11:39:40;26.70;;;2.60;;
82248;SDS011;71851;49.092;18.918;2023-09-19T13:37:16;2.25;;;1.00;;
82248;SDS011;71851;49.092;18.918;2023-09-19T13:40:18;9.35;;;1.42;;
82248;SDS011;71851;49.092;18.918;2023-09-19T13:43:18;1.58;;;0.70;;
82248;SDS011;71851;49.092;18.918;2023-09-19T13:46:21;25.65;;;3.60;;
82248;SDS011;71851;49.092;18.918;2023-09-19T13:49:25;20.65;;;2.47;;
82248;SDS011;71851;49.092;18.918;2023-09-19T13:52:26;1.70;;;1.13;;
82248;SDS011;71851;49.092;18.918;2023-09-19T13:55:28;3.75;;;1.80;;
82248;SDS011;71851;49.092;18.918;2023-09-19T13:58:28;1.63;;;1.10;;
82248;SDS011;71851;49.092;18.918;2023-09-19T14:01:31;1.30;;;0.95;;
82248;SDS011;71851;49.092;18.918;2023-09-19T14:04:31;3.33;;;1.33;;
82248;SDS011;71851;49.092;18.918;2023-09-19T14:07:32;1.35;;;1.05;;
82248;SDS011;71851;49.092;18.918;2023-09-19T14:10:32;2.08;;;1.30;;
82248;SDS011;71851;49.092;18.918;2023-09-19T14:13:33;2.75;;;1.42;;
82248;SDS011;71851;49.092;18.918;2023-09-19T14:16:35;1.75;;;1.13;;
82248;SDS011;71851;49.092;18.918;2023-09-19T14:19:35;2.17;;;1.30;;
82248;SDS011;71851;49.092;18.918;2023-09-19T14:22:36;3.42;;;1.17;;
82248;SDS011;71851;49.092;18.918;2023-09-19T14:25:37;1.55;;;1.02;;
82248;SDS011;71851;49.092;18.918;2023-09-19T14:28:38;3.95;;;1.98;;
82248;SDS011;71851;49.092;18.918;2023-09-19T14:31:39;2.10;;;1.35;;
82248;SDS011;71851;49.092;18.918;2023-09-19T14:34:42;1.27;;;1.17;;
82248;SDS011;71851;49.092;18.918;2023-09-19T14:37:44;2.95;;;1.45;;
82248;SDS011;71851;49.092;18.918;2023-09-19T14:40:45;3.17;;;1.50;;
82248;SDS011;71851;49.092;18.918;2023-09-19T14:43:46;2.65;;;1.17;;
82248;SDS011;71851;49.092;18.918;2023-09-19T14:46:46;2.67;;;1.73;;
82248;SDS011;71851;49.092;18.918;2023-09-19T14:49:46;4.30;;;1.30;;
82248;SDS011;71851;49.092;18.918;2023-09-19T20:01:01;5.45;;;1.70;;
82248;SDS011;71851;49.092;18.918;2023-09-19T20:04:02;2.85;;;1.40;;
82248;SDS011;71851;49.092;18.918;2023-09-19T20:07:04;2.92;;;1.33;;
82248;SDS011;71851;49.092;18.918;2023-09-19T20:10:05;3.55;;;1.10;;
82248;SDS011;71851;49.092;18.918;2023-09-19T20:13:06;1.30;;;1.20;;
82248;SDS011;71851;49.092;18.918;2023-09-19T20:16:07;2.33;;;1.33;;
82248;SDS011;71851;49.092;18.918;2023-09-19T20:19:08;3.50;;;1.55;;
82248;SDS011;71851;49.092;18.918;2023-09-19T20:22:09;3.63;;;1.67;;
82248;SDS011;71851;49.092;18.918;2023-09-19T20:25:12;5.75;;;1.95;;
82248;SDS011;71851;49.092;18.918;2023-09-19T20:28:12;2.45;;;1.30;;
82248;SDS011;71851;49.092;18.918;2023-09-19T20:31:14;4.53;;;1.75;;
82248;SDS011;71851;49.092;18.918;2023-09-19T20:34:14;4.18;;;2.03;;
82248;SDS011;71851;49.092;18.918;2023-09-19T20:37:15;1.95;;;1.50;;
82248;SDS011;71851;49.092;18.918;2023-09-19T20:40:16;2.00;;;1.80;;
82248;SDS011;71851;49.092;18.918;2023-09-19T20:43:20;3.72;;;1.75;;
82248;SDS011;71851;49.092;18.918;2023-09-19T20:46:21;3.83;;;2.33;;
82248;SDS011;71851;49.092;18.918;2023-09-19T20:49:23;1.90;;;1.67;;
82248;SDS011;71851;49.092;18.918;2023-09-19T20:52:24;2.90;;;1.42;;
82248;SDS011;71851;49.092;18.918;2023-09-19T20:55:24;3.33;;;1.52;;
82248;SDS011;71851;49.092;18.918;2023-09-19T20:58:24;2.10;;;1.60;;
82248;SDS011;71851;49.092;18.918;2023-09-19T21:01:25;3.78;;;1.50;;
82248;SDS011;71851;49.092;18.918;2023-09-19T21:04:26;2.65;;;1.48;;
82248;SDS011;71851;49.092;18.918;2023-09-19T21:07:27;3.45;;;1.23;;
82248;SDS011;71851;49.092;18.918;2023-09-19T21:10:29;1.88;;;1.27;;
82248;SDS011;71851;49.092;18.918;2023-09-19T21:13:30;2.80;;;1.08;;
82248;SDS011;71851;49.092;18.918;2023-09-19T21:16:30;4.85;;;1.50;;
82248;SDS011;71851;49.092;18.918;2023-09-19T21:19:31;3.05;;;1.35;;
82248;SDS011;71851;49.092;18.918;2023-09-19T21:22:32;6.35;;;3.38;;
82248;SDS011;71851;49.092;18.918;2023-09-19T21:25:32;2.63;;;1.20;;
82248;SDS011;71851;49.092;18.918;2023-09-19T21:28:33;2.72;;;1.20;;
82248;SDS011;71851;49.092;18.918;2023-09-19T21:34:35;5.73;;;1.20;;
82248;SDS011;71851;49.092;18.918;2023-09-19T21:37:35;1.70;;;1.38;;
82248;SDS011;71851;49.092;18.918;2023-09-19T21:40:36;3.28;;;1.35;;
82248;SDS011;71851;49.092;18.918;2023-09-19T21:43:37;4.53;;;1.55;;
82248;SDS011;71851;49.092;18.918;2023-09-19T21:46:38;2.70;;;1.77;;
82248;SDS011;71851;49.092;18.918;2023-09-19T21:49:39;2.28;;;1.70;;
82248;SDS011;71851;49.092;18.918;2023-09-19T21:52:39;5.80;;;2.10;;
82248;SDS011;71851;49.092;18.918;2023-09-19T21:55:40;2.80;;;1.73;;
82248;SDS011;71851;49.092;18.918;2023-09-19T22:12:51;6.30;;;1.55;;
82248;SDS011;71851;49.092;18.918;2023-09-19T22:15:59;3.92;;;1.50;;
82248;SDS011;71851;49.092;18.918;2023-09-19T22:19:00;2.92;;;1.60;;
82248;SDS011;71851;49.092;18.918;2023-09-19T22:22:01;2.00;;;1.58;;
82248;SDS011;71851;49.092;18.918;2023-09-19T22:28:07;3.50;;;1.80;;
82248;SDS011;71851;49.092;18.918;2023-09-19T22:31:18;3.50;;;1.45;;
82248;SDS011;71851;49.092;18.918;2023-09-19T22:34:23;2.58;;;1.80;;
82248;SDS011;71851;49.092;18.918;2023-09-19T22:37:23;6.25;;;1.60;;
82248;SDS011;71851;49.092;18.918;2023-09-19T22:40:28;4.75;;;1.80;;
82248;SDS011;71851;49.092;18.918;2023-09-19T22:43:31;2.80;;;1.88;;
82248;SDS011;71851;49.092;18.918;2023-09-19T22:46:35;4.20;;;1.25;;
82248;SDS011;71851;49.092;18.918;2023-09-19T22:49:36;4.18;;;1.70;;
82248;SDS011;71851;49.092;18.918;2023-09-19T22:52:38;2.20;;;2.00;;
82248;SDS011;71851;49.092;18.918;2023-09-19T22:55:38;4.30;;;1.88;;
82248;SDS011;71851;49.092;18.918;2023-09-19T22:58:40;2.97;;;1.77;;
82248;SDS011;71851;49.092;18.918;2023-09-19T23:01:42;5.25;;;2.05;;
82248;SDS011;71851;49.092;18.918;2023-09-19T23:04:42;2.72;;;1.80;;
82248;SDS011;71851;49.092;18.918;2023-09-19T23:07:43;5.20;;;1.80;;
82248;SDS011;71851;49.092;18.918;2023-09-19T23:10:50;3.72;;;1.67;;
82248;SDS011;71851;49.092;18.918;2023-09-19T23:16:52;5.50;;;1.50;;
82248;SDS011;71851;49.092;18.918;2023-09-19T23:20:00;4.80;;;1.92;;
82248;SDS011;71851;49.092;18.918;2023-09-19T23:23:09;5.03;;;2.13;;
82248;SDS011;71851;49.092;18.918;2023-09-19T23:26:15;3.75;;;1.85;;
82248;SDS011;71851;49.092;18.918;2023-09-19T23:29:16;8.13;;;1.80;;
82248;SDS011;71851;49.092;18.918;2023-09-19T23:32:19;3.25;;;1.88;;
82248;SDS011;71851;49.092;18.918;2023-09-19T23:35:21;2.83;;;1.33;;
82248;SDS011;71851;49.092;18.918;2023-09-19T23:41:23;2.07;;;1.50;;
82248;SDS011;71851;49.092;18.918;2023-09-19T23:44:25;3.45;;;1.48;;
82248;SDS011;71851;49.092;18.918;2023-09-19T23:47:25;5.57;;;1.52;;
82248;SDS011;71851;49.092;18.918;2023-09-19T23:50:26;3.17;;;1.67;;
82248;SDS011;71851;49.092;18.918;2023-09-19T23:53:32;6.45;;;1.48;;
82248;SDS011;71851;49.092;18.918;2023-09-19T23:56:33;3.97;;;1.50;;
82248;SDS011;71851;49.092;18.918;2023-09-19T23:59:34;4.70;;;1.52;;
